CheckWX is a tool to help pilots better visualize weather data.  It is not intended as a substitute for an official pre-flight weather briefing.

11:26:53 UTC

KIFP TAF
Laughlin / Bullhead International Airport
Bullhead City, Arizona, USA
KIFP 170536Z 1706/1806 VRB05KT P6SM SKC FM171700 19010KT P6SM SKC FM180200 16008KT P6SM SKC

Aug-17@
06:00 UTC

Aug-17 @ 06:00 UTC

Aug-17@
17:00 UTC

Aug-17 @ 17:00 UTC

KIFP 170536Z 1706/1806 VRB05KT P6SM SKC
Wind
  • Variable at 5 KTS
Cloud Levels
  • Clear skies

Aug-17@
17:00 UTC

Aug-17 @ 17:00 UTC

Aug-18@
02:00 UTC

Aug-18 @ 02:00 UTC

FM171700 19010KT P6SM SKC

From

From Standard forecast or significant change

Wind
  • 190° at 10 KTS
Cloud Levels
  • Clear skies

Aug-18@
02:00 UTC

Aug-18 @ 02:00 UTC

Aug-18@
06:00 UTC

Aug-18 @ 06:00 UTC

FM180200 16008KT P6SM SKC

From

From Standard forecast or significant change

Wind
  • 160° at 8 KTS
Cloud Levels
  • Clear skies